createdAt,value
2022-12-05T00:00:07.014Z,3.90
2022-12-05T00:02:36.416Z,4.00
2022-12-05T00:05:04.487Z,3.30
2022-12-05T00:07:32.199Z,3.55
2022-12-05T00:10:00.129Z,3.78
2022-12-05T00:12:28.433Z,3.80
2022-12-05T00:14:55.935Z,3.53
2022-12-05T00:17:23.567Z,3.92
2022-12-05T00:19:56.745Z,3.83
2022-12-05T00:22:24.726Z,3.88
2022-12-05T00:24:52.528Z,4.10
2022-12-05T00:27:20.224Z,4.63
2022-12-05T00:29:48.169Z,4.40
2022-12-05T00:32:15.885Z,4.53
2022-12-05T00:34:43.567Z,4.38
2022-12-05T00:37:12.710Z,4.45
2022-12-05T00:39:40.291Z,4.63
2022-12-05T00:42:08.007Z,3.90
2022-12-05T00:44:35.728Z,4.32
2022-12-05T00:47:03.392Z,4.10
2022-12-05T00:49:31.525Z,4.50
2022-12-05T00:51:59.057Z,4.15
2022-12-05T00:54:28.323Z,4.13
2022-12-05T00:56:55.946Z,3.75
2022-12-05T00:59:23.594Z,3.97
2022-12-05T01:01:51.526Z,4.18
2022-12-05T01:04:20.167Z,4.55
2022-12-05T01:06:47.887Z,4.30
2022-12-05T01:09:17.339Z,4.20
2022-12-05T01:11:46.602Z,4.07
2022-12-05T01:14:14.936Z,4.20
2022-12-05T01:16:44.043Z,3.95
2022-12-05T01:19:14.178Z,3.88
2022-12-05T01:21:42.000Z,3.50
2022-12-05T01:24:09.652Z,3.97
2022-12-05T01:26:37.304Z,4.00
2022-12-05T01:29:06.634Z,3.75
2022-12-05T01:31:35.784Z,3.75
2022-12-05T01:34:06.122Z,3.65
2022-12-05T01:36:33.841Z,3.55
2022-12-05T01:39:01.525Z,4.05
2022-12-05T01:41:30.693Z,3.45
2022-12-05T01:44:01.379Z,3.83
2022-12-05T01:46:32.103Z,3.25
2022-12-05T01:49:03.811Z,3.42
2022-12-05T01:51:31.776Z,3.45
2022-12-05T01:53:59.561Z,3.50
2022-12-05T01:56:27.098Z,2.92
2022-12-05T01:58:54.889Z,3.00
2022-12-05T02:01:22.647Z,3.47
2022-12-05T02:03:53.068Z,3.15
2022-12-05T02:06:20.963Z,3.00
2022-12-05T02:08:48.694Z,3.58
2022-12-05T02:11:16.428Z,3.55
2022-12-05T02:14:05.508Z,2.88
2022-12-05T02:16:42.745Z,2.72
2022-12-05T02:19:42.328Z,3.03
2022-12-05T02:22:55.035Z,3.00
2022-12-05T02:25:35.301Z,3.20
2022-12-05T02:28:36.898Z,3.40
2022-12-05T02:31:07.879Z,2.85
2022-12-05T02:33:36.512Z,3.65
2022-12-05T02:36:05.752Z,3.08
2022-12-05T02:38:37.042Z,3.08
2022-12-05T02:41:11.124Z,3.22
2022-12-05T02:46:10.665Z,3.42
2022-12-05T02:48:38.406Z,3.58
2022-12-05T02:51:06.416Z,2.80
2022-12-05T02:53:34.121Z,3.25
2022-12-05T02:56:01.727Z,2.90
2022-12-05T02:58:33.205Z,3.28
2022-12-05T03:01:01.055Z,2.95
2022-12-05T03:03:30.154Z,3.20
2022-12-05T03:06:01.607Z,2.97
2022-12-05T03:08:32.126Z,3.28
2022-12-05T03:10:59.615Z,2.75
2022-12-05T03:13:28.220Z,2.90
2022-12-05T03:15:56.947Z,3.20
2022-12-05T03:18:25.398Z,2.83
2022-12-05T03:20:57.607Z,3.03
2022-12-05T03:23:26.675Z,3.15
2022-12-05T03:25:58.541Z,3.50
2022-12-05T03:28:30.293Z,3.25
2022-12-05T03:30:58.661Z,2.88
2022-12-05T03:33:28.200Z,3.03
2022-12-05T03:36:02.168Z,3.20
2022-12-05T03:41:07.948Z,2.75
2022-12-05T03:43:38.367Z,3.03
2022-12-05T03:46:07.457Z,2.72
2022-12-05T03:48:36.346Z,2.75
2022-12-05T03:51:06.669Z,2.83
2022-12-05T03:53:36.298Z,3.22
2022-12-05T03:56:06.275Z,3.33
2022-12-05T03:58:36.624Z,3.03
2022-12-05T04:01:04.862Z,3.30
2022-12-05T04:03:36.678Z,3.10
2022-12-05T04:06:06.786Z,2.92
2022-12-05T04:08:37.168Z,3.15
2022-12-05T04:11:06.950Z,3.38
2022-12-05T04:13:37.331Z,3.45
2022-12-05T04:16:06.163Z,3.33
2022-12-05T04:18:33.910Z,3.20
2022-12-05T04:21:01.769Z,2.92
2022-12-05T04:23:30.958Z,2.97
2022-12-05T04:26:02.205Z,2.88
2022-12-05T04:28:32.656Z,2.83
2022-12-05T04:31:04.386Z,3.20
2022-12-05T04:33:36.548Z,3.10
2022-12-05T04:36:08.056Z,2.85
2022-12-05T04:38:40.116Z,2.80
2022-12-05T04:41:09.643Z,2.63
2022-12-05T04:43:41.300Z,2.85
2022-12-05T04:46:10.397Z,2.60
2022-12-05T04:48:39.718Z,3.00
2022-12-05T04:51:08.393Z,2.92
2022-12-05T04:53:37.713Z,3.13
2022-12-05T04:56:05.622Z,3.38
2022-12-05T04:58:33.377Z,3.00
2022-12-05T05:01:04.110Z,2.83
2022-12-05T05:03:34.646Z,2.88
2022-12-05T05:06:02.329Z,2.80
2022-12-05T05:08:30.299Z,3.83
2022-12-05T05:11:11.769Z,2.97
2022-12-05T05:13:39.506Z,3.00
2022-12-05T05:16:07.850Z,2.75
2022-12-05T05:18:35.730Z,3.00
2022-12-05T05:21:03.516Z,2.72
2022-12-05T05:23:31.320Z,3.00
2022-12-05T05:25:58.932Z,2.90
2022-12-05T05:28:28.092Z,2.30
2022-12-05T05:30:55.877Z,2.95
2022-12-05T05:33:23.683Z,3.22
2022-12-05T05:35:51.284Z,3.03
2022-12-05T05:38:18.921Z,2.88
2022-12-05T05:40:46.754Z,2.75
2022-12-05T05:43:14.559Z,3.05
2022-12-05T05:45:43.713Z,3.33
2022-12-05T05:48:11.415Z,2.83
2022-12-05T05:50:39.245Z,3.28
2022-12-05T05:53:06.837Z,2.85
2022-12-05T05:55:34.576Z,3.13
2022-12-05T05:58:02.326Z,2.60
2022-12-05T06:00:29.868Z,2.95
2022-12-05T06:02:59.239Z,2.67
2022-12-05T06:05:27.036Z,2.67
2022-12-05T06:07:54.672Z,2.65
2022-12-05T06:10:22.425Z,3.13
2022-12-05T06:12:49.950Z,2.20
2022-12-05T06:15:17.728Z,2.58
2022-12-05T06:17:45.385Z,2.50
2022-12-05T06:20:14.540Z,2.58
2022-12-05T06:22:41.989Z,2.50
2022-12-05T06:25:09.892Z,2.83
2022-12-05T06:27:37.628Z,2.35
2022-12-05T06:30:07.126Z,2.28
2022-12-05T06:32:34.977Z,2.13
2022-12-05T06:35:02.586Z,2.57
2022-12-05T06:37:31.606Z,2.55
2022-12-05T06:39:59.521Z,2.30
2022-12-05T06:42:27.481Z,2.72
2022-12-05T06:44:55.196Z,2.75
2022-12-05T06:47:22.774Z,2.30
2022-12-05T06:49:50.524Z,2.63
2022-12-05T06:52:18.225Z,2.38
2022-12-05T06:54:47.390Z,2.25
2022-12-05T06:57:15.010Z,2.47
2022-12-05T06:59:42.641Z,2.00
2022-12-05T07:02:11.799Z,2.22
2022-12-05T07:04:39.598Z,2.67
2022-12-05T07:07:07.672Z,2.05
2022-12-05T07:09:35.396Z,2.45
2022-12-05T07:12:04.805Z,2.45
2022-12-05T07:14:47.164Z,2.47
2022-12-05T07:17:16.947Z,2.28
2022-12-05T07:19:44.541Z,2.30
2022-12-05T07:22:15.741Z,2.22
2022-12-05T07:24:44.030Z,2.00
2022-12-05T07:27:13.280Z,2.05
2022-12-05T07:29:40.999Z,1.98
2022-12-05T07:32:08.776Z,1.63
2022-12-05T07:34:36.918Z,2.00
2022-12-05T07:37:04.455Z,1.98
2022-12-05T07:39:32.159Z,2.17
2022-12-05T07:41:59.642Z,2.28
2022-12-05T07:44:28.750Z,1.98
2022-12-05T07:46:56.386Z,1.90
2022-12-05T07:49:23.951Z,2.05
2022-12-05T07:51:51.694Z,2.33
2022-12-05T07:54:19.222Z,2.03
2022-12-05T07:56:48.137Z,2.10
2022-12-05T07:59:16.069Z,2.50
2022-12-05T08:01:45.502Z,1.90
2022-12-05T08:04:15.550Z,2.08
2022-12-05T08:06:43.722Z,2.28
2022-12-05T08:09:11.436Z,2.13
2022-12-05T08:11:39.040Z,1.90
2022-12-05T08:14:08.312Z,2.15
2022-12-05T08:16:36.133Z,1.80
2022-12-05T08:19:06.623Z,2.25
2022-12-05T08:21:34.460Z,1.60
2022-12-05T08:24:04.290Z,1.92
2022-12-05T08:26:31.983Z,2.22
2022-12-05T08:29:00.371Z,2.05
2022-12-05T08:31:29.250Z,1.80
2022-12-05T08:33:59.018Z,2.10
2022-12-05T08:36:29.481Z,2.60
2022-12-05T08:38:57.421Z,1.42
2022-12-05T08:41:25.437Z,1.40
2022-12-05T08:43:53.214Z,1.80
2022-12-05T08:46:21.004Z,1.60
2022-12-05T08:48:48.619Z,1.95
2022-12-05T08:51:16.352Z,1.45
2022-12-05T08:53:45.535Z,2.13
2022-12-05T08:56:13.301Z,1.58
2022-12-05T08:58:41.427Z,1.30
2022-12-05T09:01:09.862Z,1.45
2022-12-05T09:03:37.801Z,1.80
2022-12-05T09:06:09.612Z,1.40
2022-12-05T09:08:37.384Z,1.35
2022-12-05T09:11:10.281Z,1.58
2022-12-05T09:13:37.949Z,1.60
2022-12-05T09:16:07.284Z,1.65
2022-12-05T09:18:34.932Z,1.50
2022-12-05T09:21:06.874Z,1.75
2022-12-05T09:23:34.638Z,1.40
2022-12-05T09:26:02.303Z,1.55
2022-12-05T09:28:31.568Z,1.38
2022-12-05T09:30:59.533Z,1.45
2022-12-05T09:33:27.366Z,1.80
2022-12-05T09:35:55.084Z,1.20
2022-12-05T09:38:22.885Z,1.30
2022-12-05T09:40:56.337Z,1.20
2022-12-05T09:43:27.668Z,1.63
2022-12-05T09:45:58.843Z,1.60
2022-12-05T09:48:26.559Z,1.45
2022-12-05T09:50:56.724Z,1.63
2022-12-05T09:53:27.114Z,1.95
2022-12-05T09:55:56.920Z,1.80
2022-12-05T09:58:30.441Z,1.60
2022-12-05T10:01:03.931Z,2.00
2022-12-05T10:03:38.045Z,1.73
2022-12-05T10:06:15.640Z,1.58
2022-12-05T10:09:04.243Z,1.27
2022-12-05T10:11:34.781Z,1.52
2022-12-05T10:14:05.882Z,2.03
2022-12-05T10:16:37.265Z,1.65
2022-12-05T10:19:06.679Z,2.50
2022-12-05T10:21:36.736Z,2.28
2022-12-05T10:24:05.867Z,1.40
2022-12-05T10:26:34.823Z,1.48
2022-12-05T10:29:07.426Z,1.60
2022-12-05T10:31:38.100Z,1.90
2022-12-05T10:34:10.897Z,1.65
2022-12-05T10:36:38.485Z,1.65
2022-12-05T10:39:11.274Z,1.58
2022-12-05T10:41:39.475Z,1.23
2022-12-05T10:44:07.245Z,1.20
2022-12-05T10:46:36.641Z,1.27
2022-12-05T10:49:09.230Z,1.48
2022-12-05T10:51:37.853Z,1.48
2022-12-05T10:54:13.265Z,1.60
2022-12-05T10:56:45.045Z,1.30
2022-12-05T10:59:13.803Z,1.33
2022-12-05T11:01:48.139Z,1.45
2022-12-05T11:04:28.116Z,1.30
2022-12-05T11:06:58.796Z,1.20
2022-12-05T11:09:27.970Z,1.13
2022-12-05T11:12:03.466Z,1.15
2022-12-05T11:14:31.176Z,1.17
2022-12-05T11:17:01.212Z,1.40
2022-12-05T11:19:30.780Z,1.55
2022-12-05T11:21:58.648Z,1.55
2022-12-05T11:24:28.467Z,1.27
2022-12-05T11:26:56.522Z,1.60
2022-12-05T11:29:32.217Z,1.58
2022-12-05T11:32:01.511Z,1.60
2022-12-05T11:34:33.399Z,1.63
2022-12-05T11:37:04.982Z,1.35
2022-12-05T11:39:32.733Z,1.67
2022-12-05T11:42:19.014Z,1.70
2022-12-05T11:45:14.716Z,1.98
2022-12-05T11:48:16.445Z,2.38
2022-12-05T11:50:49.347Z,1.80
2022-12-05T11:53:31.072Z,1.83
2022-12-05T11:56:02.715Z,1.73
2022-12-05T11:58:46.861Z,1.60
2022-12-05T12:01:18.698Z,2.20
2022-12-05T12:04:06.507Z,2.05
2022-12-05T12:06:39.086Z,1.63
2022-12-05T12:09:16.673Z,1.30
2022-12-05T12:11:47.350Z,1.90
2022-12-05T12:14:17.872Z,1.20
2022-12-05T12:16:51.173Z,1.38
2022-12-05T12:19:28.877Z,1.45
2022-12-05T12:22:15.366Z,1.63
2022-12-05T12:24:56.818Z,1.58
2022-12-05T12:27:32.446Z,1.27
2022-12-05T12:30:03.785Z,1.20
2022-12-05T12:32:35.319Z,1.33
2022-12-05T12:35:31.338Z,1.70
2022-12-05T12:38:19.950Z,1.20
2022-12-05T12:40:49.734Z,1.30
2022-12-05T12:46:30.497Z,1.13
2022-12-05T12:49:11.389Z,1.38
2022-12-05T12:51:43.933Z,1.85
2022-12-05T12:57:28.907Z,1.40
2022-12-05T13:00:02.914Z,1.40
2022-12-05T13:05:02.135Z,1.40
2022-12-05T13:07:33.349Z,1.50
2022-12-05T13:10:03.376Z,1.48
2022-12-05T13:12:33.133Z,1.50
2022-12-05T13:15:04.675Z,1.40
2022-12-05T13:17:32.806Z,1.58
2022-12-05T13:20:00.449Z,1.33
2022-12-05T13:22:28.374Z,1.38
2022-12-05T13:24:57.725Z,1.70
2022-12-05T13:27:26.557Z,1.50
2022-12-05T13:29:55.319Z,1.35
2022-12-05T13:32:28.236Z,1.63
2022-12-05T13:34:55.632Z,1.40
2022-12-05T13:37:25.220Z,1.13
2022-12-05T13:39:54.925Z,1.52
2022-12-05T13:42:25.514Z,1.45
2022-12-05T13:44:54.357Z,1.50
2022-12-05T13:47:29.462Z,1.20
2022-12-05T13:50:00.986Z,1.20
2022-12-05T13:52:31.437Z,1.42
2022-12-05T13:55:01.293Z,1.30
2022-12-05T13:57:50.046Z,1.95
2022-12-05T14:00:34.237Z,1.38
2022-12-05T14:03:07.230Z,1.35
2022-12-05T14:05:39.971Z,1.38
2022-12-05T14:08:47.117Z,1.63
2022-12-05T14:11:14.920Z,1.00
2022-12-05T14:13:45.287Z,1.35
2022-12-05T14:16:40.264Z,1.58
2022-12-05T14:21:42.021Z,1.20
2022-12-05T14:24:12.514Z,1.50
2022-12-05T14:26:51.892Z,1.50
2022-12-05T14:29:33.428Z,1.23
2022-12-05T14:32:11.055Z,1.65
2022-12-05T14:34:39.077Z,1.45
2022-12-05T14:37:08.361Z,1.27
2022-12-05T14:39:41.219Z,1.20
2022-12-05T14:42:24.305Z,1.35
2022-12-05T14:44:55.053Z,1.38
2022-12-05T14:47:24.309Z,1.45
2022-12-05T14:50:01.791Z,1.42
2022-12-05T14:52:30.742Z,1.50
2022-12-05T14:55:02.717Z,1.55
2022-12-05T14:57:30.503Z,1.75
2022-12-05T15:00:01.570Z,1.70
2022-12-05T15:02:31.911Z,1.88
2022-12-05T15:05:01.019Z,1.73
2022-12-05T15:07:35.341Z,1.77
2022-12-05T15:10:04.116Z,2.22
2022-12-05T15:12:38.220Z,2.50
2022-12-05T15:17:45.664Z,1.70
2022-12-05T15:20:18.127Z,2.13
2022-12-05T15:22:45.869Z,1.95
2022-12-05T15:25:24.849Z,1.40
2022-12-05T15:27:57.194Z,1.83
2022-12-05T15:30:26.786Z,1.50
2022-12-05T15:32:59.272Z,2.45
2022-12-05T15:35:29.275Z,2.00
2022-12-05T15:37:57.722Z,2.15
2022-12-05T15:40:25.542Z,1.95
2022-12-05T15:42:54.262Z,2.03
2022-12-05T15:45:24.104Z,2.00
2022-12-05T15:47:54.746Z,1.98
2022-12-05T15:50:28.990Z,1.75
2022-12-05T15:52:58.288Z,1.70
2022-12-05T15:55:27.742Z,1.80
2022-12-05T15:57:57.791Z,1.85
2022-12-05T16:00:25.529Z,2.10
2022-12-05T16:02:56.518Z,1.90
2022-12-05T16:05:26.633Z,2.08
2022-12-05T16:07:54.442Z,2.42
2022-12-05T16:10:27.814Z,2.30
2022-12-05T16:12:57.178Z,2.00
2022-12-05T16:15:26.726Z,2.00
2022-12-05T16:17:57.096Z,1.60
2022-12-05T16:20:29.513Z,2.03
2022-12-05T16:22:59.182Z,1.80
2022-12-05T16:25:28.163Z,2.95
2022-12-05T16:28:00.067Z,1.85
2022-12-05T16:30:27.875Z,2.05
2022-12-05T16:33:05.111Z,2.60
2022-12-05T16:35:35.081Z,2.00
2022-12-05T16:38:14.058Z,2.33
2022-12-05T16:40:50.563Z,2.25
2022-12-05T16:43:21.089Z,2.13
2022-12-05T16:45:48.907Z,2.42
2022-12-05T16:48:22.864Z,2.78
2022-12-05T16:50:52.165Z,2.25
2022-12-05T16:53:29.060Z,2.33
2022-12-05T16:55:57.289Z,2.20
2022-12-05T16:58:26.437Z,2.53
2022-12-05T17:01:00.670Z,2.30
2022-12-05T17:03:34.952Z,2.28
2022-12-05T17:06:03.696Z,2.00
2022-12-05T17:08:31.339Z,2.60
2022-12-05T17:10:59.014Z,2.20
2022-12-05T17:13:26.775Z,2.75
2022-12-05T17:15:54.434Z,2.65
2022-12-05T17:18:26.536Z,2.60
2022-12-05T17:21:00.345Z,2.20
2022-12-05T17:23:28.066Z,2.00
2022-12-05T17:25:56.443Z,2.28
2022-12-05T17:28:24.344Z,1.98
2022-12-05T17:30:52.097Z,2.42
2022-12-05T17:33:20.024Z,2.67
2022-12-05T17:35:47.683Z,2.20
2022-12-05T17:38:16.902Z,2.33
2022-12-05T17:40:44.599Z,2.30
2022-12-05T17:43:12.804Z,1.80
2022-12-05T17:45:40.592Z,2.30
2022-12-05T17:48:10.453Z,2.33
2022-12-05T17:50:38.585Z,3.03
2022-12-05T17:55:55.590Z,2.65
2022-12-05T17:58:23.387Z,2.53
2022-12-05T18:00:51.001Z,3.10
2022-12-05T18:03:18.696Z,2.60
2022-12-05T18:05:46.377Z,2.53
2022-12-05T18:08:14.270Z,2.75
2022-12-05T18:10:41.859Z,2.88
2022-12-05T18:13:11.001Z,2.55
2022-12-05T18:15:42.718Z,2.58
2022-12-05T18:18:13.804Z,3.05
2022-12-05T18:20:41.380Z,2.67
2022-12-05T18:23:09.019Z,3.03
2022-12-05T18:25:36.668Z,2.80
2022-12-05T18:28:04.578Z,3.40
2022-12-05T18:30:33.815Z,2.65
2022-12-05T18:33:01.639Z,2.63
2022-12-05T18:35:29.324Z,2.92
2022-12-05T18:37:57.091Z,2.80
2022-12-05T18:40:25.435Z,2.50
2022-12-05T18:42:55.369Z,2.53
2022-12-05T18:45:22.960Z,3.15
2022-12-05T18:47:54.663Z,2.85
2022-12-05T18:50:25.019Z,2.50
2022-12-05T18:52:52.820Z,2.92
2022-12-05T18:55:31.076Z,3.17
2022-12-05T18:58:08.188Z,3.17
2022-12-05T19:00:35.840Z,3.08
2022-12-05T19:03:09.258Z,3.33
2022-12-05T19:05:37.291Z,2.40
2022-12-05T19:08:05.391Z,2.53
2022-12-05T19:10:35.588Z,2.85
2022-12-05T19:13:03.277Z,3.22
2022-12-05T19:15:31.119Z,3.03
2022-12-05T19:17:58.907Z,3.17
2022-12-05T19:20:28.143Z,2.97
2022-12-05T19:23:00.721Z,3.05
2022-12-05T19:25:29.563Z,2.50
2022-12-05T19:27:57.368Z,2.45
2022-12-05T19:30:25.070Z,2.63
2022-12-05T19:32:52.699Z,2.38
2022-12-05T19:35:20.378Z,2.75
2022-12-05T19:37:49.502Z,3.15
2022-12-05T19:40:17.381Z,2.85
2022-12-05T19:42:45.066Z,2.72
2022-12-05T19:45:17.768Z,3.05
2022-12-05T19:47:45.841Z,2.58
2022-12-05T19:50:13.594Z,3.17
2022-12-05T19:52:41.207Z,3.22
2022-12-05T19:55:10.629Z,2.80
2022-12-05T19:57:38.468Z,2.90
2022-12-05T20:00:08.728Z,2.75
2022-12-05T20:02:40.093Z,2.63
2022-12-05T20:05:08.744Z,2.47
2022-12-05T20:07:36.543Z,2.65
2022-12-05T20:10:04.754Z,2.90
2022-12-05T20:12:33.827Z,2.80
2022-12-05T20:15:01.536Z,2.65
2022-12-05T20:17:29.155Z,2.50
2022-12-05T20:19:57.077Z,2.70
2022-12-05T20:22:25.187Z,2.35
2022-12-05T20:24:52.958Z,2.63
2022-12-05T20:27:20.543Z,2.60
2022-12-05T20:29:49.593Z,2.88
2022-12-05T20:32:17.106Z,2.58
2022-12-05T20:34:44.803Z,2.60
2022-12-05T20:37:12.301Z,2.47
2022-12-05T20:39:39.878Z,2.75
2022-12-05T20:42:07.601Z,2.40
2022-12-05T20:44:35.380Z,2.60
2022-12-05T20:47:04.460Z,2.10
2022-12-05T20:49:32.186Z,2.58
2022-12-05T20:51:59.750Z,3.13
2022-12-05T20:54:27.647Z,2.40
2022-12-05T20:56:55.304Z,2.30
2022-12-05T20:59:22.927Z,2.20
2022-12-05T21:01:50.634Z,2.65
2022-12-05T21:04:19.837Z,2.65
2022-12-05T21:06:47.572Z,2.53
2022-12-05T21:09:15.376Z,2.25
2022-12-05T21:11:43.271Z,3.15
2022-12-05T21:14:11.026Z,2.67
2022-12-05T21:16:38.663Z,3.38
2022-12-05T21:19:06.432Z,2.40
2022-12-05T21:21:35.636Z,2.20
2022-12-05T21:24:03.964Z,2.42
2022-12-05T21:26:33.234Z,2.38
2022-12-05T21:29:00.998Z,2.42
2022-12-05T21:31:29.656Z,2.50
2022-12-05T21:33:59.060Z,2.22
2022-12-05T21:36:27.158Z,2.50
2022-12-05T21:38:56.784Z,2.35
2022-12-05T21:41:24.503Z,1.80
2022-12-05T21:43:55.093Z,2.30
2022-12-05T21:46:23.471Z,1.90
2022-12-05T21:48:51.058Z,2.38
2022-12-05T21:51:18.673Z,2.25
2022-12-05T21:53:46.325Z,2.17
2022-12-05T21:56:16.776Z,2.13
2022-12-05T21:58:45.087Z,1.80
2022-12-05T22:01:16.448Z,1.88
2022-12-05T22:03:44.058Z,2.40
2022-12-05T22:06:12.641Z,2.22
2022-12-05T22:08:41.022Z,2.58
2022-12-05T22:11:12.952Z,2.30
2022-12-05T22:13:42.174Z,2.38
2022-12-05T22:16:09.754Z,2.60
2022-12-05T22:18:37.181Z,2.72
2022-12-05T22:21:05.851Z,2.20
2022-12-05T22:23:33.858Z,2.60
2022-12-05T22:26:02.360Z,2.25
2022-12-05T22:28:29.920Z,2.03
2022-12-05T22:31:00.127Z,2.17
2022-12-05T22:33:28.072Z,2.42
2022-12-05T22:35:56.562Z,2.30
2022-12-05T22:38:24.076Z,2.13
2022-12-05T22:40:55.022Z,2.45
2022-12-05T22:43:22.749Z,2.33
2022-12-05T22:45:50.144Z,2.30
2022-12-05T22:48:19.004Z,2.60
2022-12-05T22:50:47.310Z,2.17
2022-12-05T22:53:15.126Z,1.85
2022-12-05T22:55:42.913Z,1.90
2022-12-05T22:58:10.313Z,2.50
2022-12-05T23:00:37.657Z,1.95
2022-12-05T23:03:05.600Z,2.33
2022-12-05T23:05:38.837Z,2.03
2022-12-05T23:08:06.421Z,2.10
2022-12-05T23:10:34.673Z,1.80
2022-12-05T23:13:02.268Z,1.88
2022-12-05T23:15:30.811Z,2.15
2022-12-05T23:18:00.257Z,2.08
2022-12-05T23:20:28.140Z,1.90
2022-12-05T23:22:57.489Z,1.70
2022-12-05T23:25:25.213Z,1.80
2022-12-05T23:27:52.938Z,1.58
2022-12-05T23:30:20.911Z,1.92
2022-12-05T23:32:48.665Z,1.58
2022-12-05T23:35:16.570Z,1.73
2022-12-05T23:37:44.455Z,1.42
2022-12-05T23:40:13.787Z,1.20
2022-12-05T23:42:41.699Z,1.80
2022-12-05T23:45:09.988Z,1.50
2022-12-05T23:47:37.914Z,1.65
2022-12-05T23:50:07.296Z,1.42
2022-12-05T23:52:36.615Z,1.30
2022-12-05T23:55:04.926Z,1.80
2022-12-05T23:57:34.276Z,1.48
